Adrian, Michigan
Current Conditions -  °F | °C
As of 11:53 PM on Sunday 21 Dec 2014 (Local Time) from KADG Reporting Station
Haze Haze  
Wind Chill: 20°   Ceiling: Unl
Heat Index: 27°   Visibility: 5mi
Dew Point: 24°   Wind: 6mph
Humidity: 89%   Direction: 120°ESE
Pressure: 30.17"   Gusts: NA
Location:  41.9°N, 84.04°W
Report Text: KADG 220453Z AUTO 12005KT 5SM BR CLR M03/M04 A3017 RMK AO2 SLP228 T10281044 400061056 $
Loading
Personal Weather Stations






























Interactive Weather Map New forecast layout! Learn more

10-Day Weather Forecast

Advertisements
Track Severe Weather on mobile